sensor_id;sensor_type;location;lat;lon;timestamp;P1;durP1;ratioP1;P2;durP2;ratioP2
52618;SDS011;38513;53.234;6.568;2023-08-07T00:01:32;8.80;;;5.28;;
52618;SDS011;38513;53.234;6.568;2023-08-07T00:03:58;11.60;;;5.47;;
52618;SDS011;38513;53.234;6.568;2023-08-07T00:06:27;10.38;;;5.30;;
52618;SDS011;38513;53.234;6.568;2023-08-07T00:08:57;11.27;;;5.25;;
52618;SDS011;38513;53.234;6.568;2023-08-07T00:11:33;11.48;;;5.40;;
52618;SDS011;38513;53.234;6.568;2023-08-07T00:14:01;10.30;;;5.55;;
52618;SDS011;38513;53.234;6.568;2023-08-07T00:16:36;9.43;;;5.10;;
52618;SDS011;38513;53.234;6.568;2023-08-07T00:19:02;10.57;;;4.88;;
52618;SDS011;38513;53.234;6.568;2023-08-07T00:21:29;10.27;;;4.18;;
52618;SDS011;38513;53.234;6.568;2023-08-07T00:24:00;10.40;;;3.88;;
52618;SDS011;38513;53.234;6.568;2023-08-07T00:26:27;9.77;;;3.70;;
52618;SDS011;38513;53.234;6.568;2023-08-07T00:28:58;7.70;;;3.53;;
52618;SDS011;38513;53.234;6.568;2023-08-07T00:31:25;9.75;;;3.50;;
52618;SDS011;38513;53.234;6.568;2023-08-07T00:34:02;7.07;;;3.17;;
52618;SDS011;38513;53.234;6.568;2023-08-07T00:36:29;8.10;;;3.10;;
52618;SDS011;38513;53.234;6.568;2023-08-07T00:39:03;7.68;;;2.90;;
52618;SDS011;38513;53.234;6.568;2023-08-07T00:41:29;8.55;;;2.80;;
52618;SDS011;38513;53.234;6.568;2023-08-07T00:44:03;6.32;;;2.85;;
52618;SDS011;38513;53.234;6.568;2023-08-07T00:46:32;7.95;;;2.53;;
52618;SDS011;38513;53.234;6.568;2023-08-07T00:49:01;7.57;;;2.78;;
52618;SDS011;38513;53.234;6.568;2023-08-07T00:51:30;7.53;;;2.83;;
52618;SDS011;38513;53.234;6.568;2023-08-07T00:54:00;7.88;;;3.10;;
52618;SDS011;38513;53.234;6.568;2023-08-07T00:56:27;7.15;;;2.90;;
52618;SDS011;38513;53.234;6.568;2023-08-07T00:58:56;7.50;;;3.03;;
52618;SDS011;38513;53.234;6.568;2023-08-07T01:01:23;8.27;;;3.47;;
52618;SDS011;38513;53.234;6.568;2023-08-07T01:03:58;9.13;;;3.70;;
52618;SDS011;38513;53.234;6.568;2023-08-07T01:06:26;7.43;;;3.17;;
52618;SDS011;38513;53.234;6.568;2023-08-07T01:08:53;7.72;;;3.25;;
52618;SDS011;38513;53.234;6.568;2023-08-07T01:13:57;8.05;;;3.15;;
52618;SDS011;38513;53.234;6.568;2023-08-07T01:16:28;7.35;;;3.30;;
52618;SDS011;38513;53.234;6.568;2023-08-07T01:18:55;7.80;;;3.08;;
52618;SDS011;38513;53.234;6.568;2023-08-07T01:21:23;8.68;;;3.03;;
52618;SDS011;38513;53.234;6.568;2023-08-07T01:23:49;7.55;;;3.42;;
52618;SDS011;38513;53.234;6.568;2023-08-07T01:26:17;7.82;;;3.72;;
52618;SDS011;38513;53.234;6.568;2023-08-07T01:28:49;11.52;;;3.53;;
52618;SDS011;38513;53.234;6.568;2023-08-07T01:31:20;8.85;;;3.63;;
52618;SDS011;38513;53.234;6.568;2023-08-07T01:33:50;8.90;;;3.40;;
52618;SDS011;38513;53.234;6.568;2023-08-07T01:36:19;8.40;;;3.28;;
52618;SDS011;38513;53.234;6.568;2023-08-07T01:38:46;8.98;;;3.47;;
52618;SDS011;38513;53.234;6.568;2023-08-07T01:41:14;8.82;;;3.42;;
52618;SDS011;38513;53.234;6.568;2023-08-07T01:43:40;9.45;;;3.90;;
52618;SDS011;38513;53.234;6.568;2023-08-07T01:46:06;9.52;;;3.60;;
52618;SDS011;38513;53.234;6.568;2023-08-07T01:48:35;10.77;;;3.92;;
52618;SDS011;38513;53.234;6.568;2023-08-07T01:51:01;7.95;;;3.65;;
52618;SDS011;38513;53.234;6.568;2023-08-07T01:53:28;9.60;;;3.67;;
52618;SDS011;38513;53.234;6.568;2023-08-07T01:55:54;11.30;;;4.05;;
52618;SDS011;38513;53.234;6.568;2023-08-07T01:58:20;10.90;;;4.00;;
52618;SDS011;38513;53.234;6.568;2023-08-07T02:01:05;10.25;;;4.10;;
52618;SDS011;38513;53.234;6.568;2023-08-07T02:03:37;11.40;;;4.47;;
52618;SDS011;38513;53.234;6.568;2023-08-07T02:06:03;9.90;;;4.53;;
52618;SDS011;38513;53.234;6.568;2023-08-07T02:08:30;10.50;;;4.63;;
52618;SDS011;38513;53.234;6.568;2023-08-07T02:10:56;12.60;;;4.83;;
52618;SDS011;38513;53.234;6.568;2023-08-07T02:13:22;12.55;;;4.50;;
52618;SDS011;38513;53.234;6.568;2023-08-07T02:15:48;11.73;;;4.25;;
52618;SDS011;38513;53.234;6.568;2023-08-07T02:18:14;12.77;;;4.78;;
52618;SDS011;38513;53.234;6.568;2023-08-07T02:20:41;13.60;;;4.80;;
52618;SDS011;38513;53.234;6.568;2023-08-07T02:23:07;10.57;;;4.63;;
52618;SDS011;38513;53.234;6.568;2023-08-07T02:25:34;11.48;;;4.82;;
52618;SDS011;38513;53.234;6.568;2023-08-07T02:28:00;12.02;;;4.63;;
52618;SDS011;38513;53.234;6.568;2023-08-07T02:30:26;12.90;;;4.70;;
52618;SDS011;38513;53.234;6.568;2023-08-07T02:32:52;10.75;;;4.80;;
52618;SDS011;38513;53.234;6.568;2023-08-07T02:35:18;12.18;;;4.55;;
52618;SDS011;38513;53.234;6.568;2023-08-07T02:37:44;11.98;;;4.45;;
52618;SDS011;38513;53.234;6.568;2023-08-07T02:40:11;15.38;;;4.43;;
52618;SDS011;38513;53.234;6.568;2023-08-07T02:42:40;12.32;;;4.40;;
52618;SDS011;38513;53.234;6.568;2023-08-07T02:45:09;17.55;;;5.13;;
52618;SDS011;38513;53.234;6.568;2023-08-07T02:47:35;14.27;;;4.63;;
52618;SDS011;38513;53.234;6.568;2023-08-07T02:50:01;10.85;;;4.00;;
52618;SDS011;38513;53.234;6.568;2023-08-07T02:52:28;13.55;;;4.10;;
52618;SDS011;38513;53.234;6.568;2023-08-07T02:54:54;13.68;;;4.40;;
52618;SDS011;38513;53.234;6.568;2023-08-07T02:57:20;12.27;;;4.38;;
52618;SDS011;38513;53.234;6.568;2023-08-07T02:59:46;14.07;;;4.35;;
52618;SDS011;38513;53.234;6.568;2023-08-07T03:02:12;13.75;;;4.30;;
52618;SDS011;38513;53.234;6.568;2023-08-07T03:04:38;11.68;;;4.13;;
52618;SDS011;38513;53.234;6.568;2023-08-07T03:07:04;13.48;;;4.28;;
52618;SDS011;38513;53.234;6.568;2023-08-07T03:09:31;13.93;;;4.45;;
52618;SDS011;38513;53.234;6.568;2023-08-07T03:11:57;14.85;;;4.43;;
52618;SDS011;38513;53.234;6.568;2023-08-07T03:14:28;11.23;;;4.50;;
52618;SDS011;38513;53.234;6.568;2023-08-07T03:16:55;12.10;;;4.20;;
52618;SDS011;38513;53.234;6.568;2023-08-07T03:19:21;11.55;;;4.32;;
52618;SDS011;38513;53.234;6.568;2023-08-07T03:21:47;14.73;;;4.18;;
52618;SDS011;38513;53.234;6.568;2023-08-07T03:24:13;12.63;;;3.90;;
52618;SDS011;38513;53.234;6.568;2023-08-07T03:26:39;10.77;;;3.63;;
52618;SDS011;38513;53.234;6.568;2023-08-07T03:29:06;9.68;;;3.47;;
52618;SDS011;38513;53.234;6.568;2023-08-07T03:31:32;12.45;;;3.30;;
52618;SDS011;38513;53.234;6.568;2023-08-07T03:33:58;9.27;;;3.22;;
52618;SDS011;38513;53.234;6.568;2023-08-07T03:36:24;10.98;;;3.20;;
52618;SDS011;38513;53.234;6.568;2023-08-07T03:38:50;14.18;;;3.20;;
52618;SDS011;38513;53.234;6.568;2023-08-07T03:41:23;10.57;;;2.83;;
52618;SDS011;38513;53.234;6.568;2023-08-07T03:43:49;12.57;;;3.05;;
52618;SDS011;38513;53.234;6.568;2023-08-07T03:46:15;11.07;;;2.72;;
52618;SDS011;38513;53.234;6.568;2023-08-07T03:48:41;9.60;;;2.97;;
52618;SDS011;38513;53.234;6.568;2023-08-07T03:51:07;15.65;;;4.10;;
52618;SDS011;38513;53.234;6.568;2023-08-07T03:53:34;15.40;;;3.88;;
52618;SDS011;38513;53.234;6.568;2023-08-07T03:56:03;14.50;;;3.88;;
52618;SDS011;38513;53.234;6.568;2023-08-07T03:58:29;15.90;;;4.10;;
52618;SDS011;38513;53.234;6.568;2023-08-07T04:00:55;14.20;;;4.57;;
52618;SDS011;38513;53.234;6.568;2023-08-07T04:03:22;15.73;;;4.38;;
52618;SDS011;38513;53.234;6.568;2023-08-07T04:05:51;13.45;;;3.95;;
52618;SDS011;38513;53.234;6.568;2023-08-07T04:08:18;18.13;;;4.53;;
52618;SDS011;38513;53.234;6.568;2023-08-07T04:10:44;16.95;;;5.00;;
52618;SDS011;38513;53.234;6.568;2023-08-07T04:13:10;15.77;;;4.32;;
52618;SDS011;38513;53.234;6.568;2023-08-07T04:15:36;20.42;;;4.50;;
52618;SDS011;38513;53.234;6.568;2023-08-07T04:18:02;23.98;;;5.70;;
52618;SDS011;38513;53.234;6.568;2023-08-07T04:20:28;17.48;;;5.00;;
52618;SDS011;38513;53.234;6.568;2023-08-07T04:22:54;17.85;;;4.93;;
52618;SDS011;38513;53.234;6.568;2023-08-07T04:25:21;20.80;;;5.00;;
52618;SDS011;38513;53.234;6.568;2023-08-07T04:27:47;18.02;;;4.65;;
52618;SDS011;38513;53.234;6.568;2023-08-07T04:30:13;20.67;;;4.45;;
52618;SDS011;38513;53.234;6.568;2023-08-07T04:32:39;22.60;;;6.00;;
52618;SDS011;38513;53.234;6.568;2023-08-07T04:35:06;15.50;;;4.53;;
52618;SDS011;38513;53.234;6.568;2023-08-07T04:37:32;19.52;;;4.85;;
52618;SDS011;38513;53.234;6.568;2023-08-07T04:39:58;23.13;;;4.47;;
52618;SDS011;38513;53.234;6.568;2023-08-07T04:42:25;18.13;;;4.28;;
52618;SDS011;38513;53.234;6.568;2023-08-07T04:44:52;13.85;;;4.05;;
52618;SDS011;38513;53.234;6.568;2023-08-07T04:47:18;18.98;;;5.22;;
52618;SDS011;38513;53.234;6.568;2023-08-07T04:49:45;17.13;;;4.63;;
52618;SDS011;38513;53.234;6.568;2023-08-07T04:52:11;16.73;;;5.13;;
52618;SDS011;38513;53.234;6.568;2023-08-07T04:54:37;15.70;;;4.43;;
52618;SDS011;38513;53.234;6.568;2023-08-07T04:57:03;17.60;;;4.90;;
52618;SDS011;38513;53.234;6.568;2023-08-07T04:59:30;20.67;;;4.78;;
52618;SDS011;38513;53.234;6.568;2023-08-07T05:01:56;19.60;;;5.07;;
52618;SDS011;38513;53.234;6.568;2023-08-07T05:04:23;15.18;;;4.07;;
52618;SDS011;38513;53.234;6.568;2023-08-07T05:06:52;19.23;;;3.92;;
52618;SDS011;38513;53.234;6.568;2023-08-07T05:09:18;12.82;;;3.60;;
52618;SDS011;38513;53.234;6.568;2023-08-07T05:11:45;19.17;;;4.15;;
52618;SDS011;38513;53.234;6.568;2023-08-07T05:14:11;17.90;;;4.53;;
52618;SDS011;38513;53.234;6.568;2023-08-07T05:16:37;16.77;;;4.72;;
52618;SDS011;38513;53.234;6.568;2023-08-07T05:19:04;18.27;;;4.80;;
52618;SDS011;38513;53.234;6.568;2023-08-07T05:21:33;18.40;;;4.93;;
52618;SDS011;38513;53.234;6.568;2023-08-07T05:24:02;16.52;;;5.15;;
52618;SDS011;38513;53.234;6.568;2023-08-07T05:26:29;20.00;;;5.40;;
52618;SDS011;38513;53.234;6.568;2023-08-07T05:28:55;19.75;;;5.07;;
52618;SDS011;38513;53.234;6.568;2023-08-07T05:31:24;16.58;;;4.97;;
52618;SDS011;38513;53.234;6.568;2023-08-07T05:33:51;19.80;;;4.70;;
52618;SDS011;38513;53.234;6.568;2023-08-07T05:36:17;16.02;;;4.47;;
52618;SDS011;38513;53.234;6.568;2023-08-07T05:38:43;21.33;;;4.97;;
52618;SDS011;38513;53.234;6.568;2023-08-07T05:41:09;18.20;;;4.82;;
52618;SDS011;38513;53.234;6.568;2023-08-07T05:43:36;18.95;;;4.70;;
52618;SDS011;38513;53.234;6.568;2023-08-07T05:46:05;15.18;;;4.32;;
52618;SDS011;38513;53.234;6.568;2023-08-07T05:48:31;16.88;;;4.20;;
52618;SDS011;38513;53.234;6.568;2023-08-07T05:50:59;17.77;;;4.25;;
52618;SDS011;38513;53.234;6.568;2023-08-07T05:53:25;16.20;;;4.20;;
52618;SDS011;38513;53.234;6.568;2023-08-07T05:55:51;14.32;;;3.75;;
52618;SDS011;38513;53.234;6.568;2023-08-07T05:58:18;13.52;;;3.40;;
52618;SDS011;38513;53.234;6.568;2023-08-07T06:00:44;15.25;;;3.70;;
52618;SDS011;38513;53.234;6.568;2023-08-07T06:03:13;14.32;;;3.55;;
52618;SDS011;38513;53.234;6.568;2023-08-07T06:05:39;14.90;;;3.30;;
52618;SDS011;38513;53.234;6.568;2023-08-07T06:08:05;14.75;;;3.97;;
52618;SDS011;38513;53.234;6.568;2023-08-07T06:10:31;17.15;;;3.58;;
52618;SDS011;38513;53.234;6.568;2023-08-07T06:12:58;17.50;;;4.20;;
52618;SDS011;38513;53.234;6.568;2023-08-07T06:15:36;14.02;;;3.53;;
52618;SDS011;38513;53.234;6.568;2023-08-07T06:18:05;14.27;;;3.10;;
52618;SDS011;38513;53.234;6.568;2023-08-07T06:20:34;12.50;;;3.00;;
52618;SDS011;38513;53.234;6.568;2023-08-07T06:23:00;9.98;;;2.80;;
52618;SDS011;38513;53.234;6.568;2023-08-07T06:25:26;11.30;;;2.93;;
52618;SDS011;38513;53.234;6.568;2023-08-07T06:27:53;12.90;;;2.88;;
52618;SDS011;38513;53.234;6.568;2023-08-07T06:30:19;10.95;;;3.20;;
52618;SDS011;38513;53.234;6.568;2023-08-07T06:32:47;12.48;;;2.83;;
52618;SDS011;38513;53.234;6.568;2023-08-07T06:35:16;15.32;;;3.47;;
52618;SDS011;38513;53.234;6.568;2023-08-07T06:37:45;14.15;;;3.47;;
52618;SDS011;38513;53.234;6.568;2023-08-07T06:40:11;13.00;;;3.25;;
52618;SDS011;38513;53.234;6.568;2023-08-07T06:42:37;11.45;;;2.88;;
52618;SDS011;38513;53.234;6.568;2023-08-07T06:45:03;12.23;;;3.30;;
52618;SDS011;38513;53.234;6.568;2023-08-07T06:47:32;12.53;;;3.70;;
52618;SDS011;38513;53.234;6.568;2023-08-07T06:49:58;15.15;;;3.58;;
52618;SDS011;38513;53.234;6.568;2023-08-07T06:52:28;14.60;;;3.35;;
52618;SDS011;38513;53.234;6.568;2023-08-07T06:54:54;11.98;;;3.17;;
52618;SDS011;38513;53.234;6.568;2023-08-07T06:57:20;11.73;;;3.20;;
52618;SDS011;38513;53.234;6.568;2023-08-07T06:59:46;15.63;;;3.70;;
52618;SDS011;38513;53.234;6.568;2023-08-07T07:02:12;14.43;;;3.65;;
52618;SDS011;38513;53.234;6.568;2023-08-07T07:04:38;15.75;;;3.42;;
52618;SDS011;38513;53.234;6.568;2023-08-07T07:07:05;14.52;;;3.42;;
52618;SDS011;38513;53.234;6.568;2023-08-07T07:09:31;15.13;;;3.78;;
52618;SDS011;38513;53.234;6.568;2023-08-07T07:11:57;13.55;;;3.38;;
52618;SDS011;38513;53.234;6.568;2023-08-07T07:14:23;14.15;;;3.80;;
52618;SDS011;38513;53.234;6.568;2023-08-07T07:16:49;14.05;;;3.60;;
52618;SDS011;38513;53.234;6.568;2023-08-07T07:19:18;13.95;;;3.65;;
52618;SDS011;38513;53.234;6.568;2023-08-07T07:21:45;15.18;;;3.75;;
52618;SDS011;38513;53.234;6.568;2023-08-07T07:24:11;17.83;;;3.75;;
52618;SDS011;38513;53.234;6.568;2023-08-07T07:26:37;15.52;;;3.65;;
52618;SDS011;38513;53.234;6.568;2023-08-07T07:29:03;11.88;;;3.10;;
52618;SDS011;38513;53.234;6.568;2023-08-07T07:31:32;11.02;;;2.92;;
52618;SDS011;38513;53.234;6.568;2023-08-07T07:33:58;13.70;;;3.30;;
52618;SDS011;38513;53.234;6.568;2023-08-07T07:36:24;15.25;;;2.95;;
52618;SDS011;38513;53.234;6.568;2023-08-07T07:38:50;12.90;;;3.47;;
52618;SDS011;38513;53.234;6.568;2023-08-07T07:41:17;13.55;;;3.25;;
52618;SDS011;38513;53.234;6.568;2023-08-07T07:43:43;14.93;;;3.33;;
52618;SDS011;38513;53.234;6.568;2023-08-07T07:46:09;13.77;;;4.00;;
52618;SDS011;38513;53.234;6.568;2023-08-07T07:48:36;12.55;;;3.53;;
52618;SDS011;38513;53.234;6.568;2023-08-07T07:51:02;17.20;;;4.03;;
52618;SDS011;38513;53.234;6.568;2023-08-07T07:53:29;14.43;;;3.60;;
52618;SDS011;38513;53.234;6.568;2023-08-07T07:55:56;14.23;;;3.77;;
52618;SDS011;38513;53.234;6.568;2023-08-07T07:58:22;11.95;;;3.17;;
52618;SDS011;38513;53.234;6.568;2023-08-07T08:00:48;12.37;;;3.33;;
52618;SDS011;38513;53.234;6.568;2023-08-07T08:03:17;11.88;;;3.03;;
52618;SDS011;38513;53.234;6.568;2023-08-07T08:05:43;13.93;;;3.40;;
52618;SDS011;38513;53.234;6.568;2023-08-07T08:08:10;13.45;;;3.17;;
52618;SDS011;38513;53.234;6.568;2023-08-07T08:10:36;14.50;;;3.47;;
52618;SDS011;38513;53.234;6.568;2023-08-07T08:13:02;13.63;;;3.85;;
52618;SDS011;38513;53.234;6.568;2023-08-07T08:15:29;13.77;;;3.55;;
52618;SDS011;38513;53.234;6.568;2023-08-07T08:17:55;14.13;;;3.58;;
52618;SDS011;38513;53.234;6.568;2023-08-07T08:20:21;14.30;;;3.97;;
52618;SDS011;38513;53.234;6.568;2023-08-07T08:22:47;14.60;;;3.72;;
52618;SDS011;38513;53.234;6.568;2023-08-07T08:25:14;14.43;;;3.67;;
52618;SDS011;38513;53.234;6.568;2023-08-07T08:27:43;12.13;;;3.33;;
52618;SDS011;38513;53.234;6.568;2023-08-07T08:30:11;12.43;;;3.45;;
52618;SDS011;38513;53.234;6.568;2023-08-07T08:32:37;13.25;;;3.22;;
52618;SDS011;38513;53.234;6.568;2023-08-07T08:35:07;15.23;;;3.80;;
52618;SDS011;38513;53.234;6.568;2023-08-07T08:37:34;13.02;;;3.17;;
52618;SDS011;38513;53.234;6.568;2023-08-07T08:40:00;12.73;;;3.00;;
52618;SDS011;38513;53.234;6.568;2023-08-07T08:42:27;13.07;;;3.40;;
52618;SDS011;38513;53.234;6.568;2023-08-07T08:44:54;13.57;;;3.10;;
52618;SDS011;38513;53.234;6.568;2023-08-07T08:47:20;11.13;;;3.03;;
52618;SDS011;38513;53.234;6.568;2023-08-07T08:49:49;12.13;;;2.60;;
52618;SDS011;38513;53.234;6.568;2023-08-07T08:52:17;12.20;;;3.00;;
52618;SDS011;38513;53.234;6.568;2023-08-07T08:54:43;11.27;;;3.08;;
52618;SDS011;38513;53.234;6.568;2023-08-07T08:57:11;11.68;;;2.70;;
52618;SDS011;38513;53.234;6.568;2023-08-07T08:59:37;10.65;;;2.60;;
52618;SDS011;38513;53.234;6.568;2023-08-07T09:02:03;13.82;;;2.55;;
52618;SDS011;38513;53.234;6.568;2023-08-07T09:04:30;12.68;;;2.97;;
52618;SDS011;38513;53.234;6.568;2023-08-07T09:06:56;11.32;;;2.50;;
52618;SDS011;38513;53.234;6.568;2023-08-07T09:09:22;11.88;;;3.17;;
52618;SDS011;38513;53.234;6.568;2023-08-07T09:11:49;9.13;;;2.88;;
52618;SDS011;38513;53.234;6.568;2023-08-07T09:14:20;12.20;;;2.80;;
52618;SDS011;38513;53.234;6.568;2023-08-07T09:16:48;12.50;;;3.25;;
52618;SDS011;38513;53.234;6.568;2023-08-07T09:19:14;11.07;;;2.85;;
52618;SDS011;38513;53.234;6.568;2023-08-07T09:21:40;11.80;;;3.00;;
52618;SDS011;38513;53.234;6.568;2023-08-07T09:24:06;12.70;;;3.10;;
52618;SDS011;38513;53.234;6.568;2023-08-07T09:26:33;11.45;;;2.78;;
52618;SDS011;38513;53.234;6.568;2023-08-07T09:28:59;10.33;;;2.60;;
52618;SDS011;38513;53.234;6.568;2023-08-07T09:31:26;13.73;;;2.80;;
52618;SDS011;38513;53.234;6.568;2023-08-07T09:33:52;11.15;;;3.05;;
52618;SDS011;38513;53.234;6.568;2023-08-07T09:36:31;13.68;;;3.05;;
52618;SDS011;38513;53.234;6.568;2023-08-07T09:39:00;10.98;;;2.90;;
52618;SDS011;38513;53.234;6.568;2023-08-07T09:41:30;8.88;;;2.80;;
52618;SDS011;38513;53.234;6.568;2023-08-07T09:43:57;12.55;;;2.72;;
52618;SDS011;38513;53.234;6.568;2023-08-07T09:46:25;13.32;;;2.83;;
52618;SDS011;38513;53.234;6.568;2023-08-07T09:48:51;9.40;;;2.60;;
52618;SDS011;38513;53.234;6.568;2023-08-07T09:51:18;9.63;;;2.28;;
52618;SDS011;38513;53.234;6.568;2023-08-07T09:53:44;10.70;;;2.40;;
52618;SDS011;38513;53.234;6.568;2023-08-07T09:56:19;11.98;;;3.20;;
52618;SDS011;38513;53.234;6.568;2023-08-07T09:58:48;12.10;;;2.97;;
52618;SDS011;38513;53.234;6.568;2023-08-07T10:01:15;10.23;;;3.08;;
52618;SDS011;38513;53.234;6.568;2023-08-07T10:03:41;12.07;;;3.20;;
52618;SDS011;38513;53.234;6.568;2023-08-07T10:06:08;13.03;;;3.10;;
52618;SDS011;38513;53.234;6.568;2023-08-07T10:08:34;10.25;;;2.85;;
52618;SDS011;38513;53.234;6.568;2023-08-07T10:11:02;10.25;;;3.05;;
52618;SDS011;38513;53.234;6.568;2023-08-07T10:13:28;12.38;;;3.05;;
52618;SDS011;38513;53.234;6.568;2023-08-07T10:15:55;13.25;;;3.15;;
52618;SDS011;38513;53.234;6.568;2023-08-07T10:18:21;12.02;;;3.22;;
52618;SDS011;38513;53.234;6.568;2023-08-07T10:20:48;10.67;;;2.90;;
52618;SDS011;38513;53.234;6.568;2023-08-07T10:23:17;13.85;;;3.28;;
52618;SDS011;38513;53.234;6.568;2023-08-07T10:25:43;12.20;;;3.17;;
52618;SDS011;38513;53.234;6.568;2023-08-07T10:28:12;11.25;;;3.08;;
52618;SDS011;38513;53.234;6.568;2023-08-07T10:30:40;12.18;;;3.35;;
52618;SDS011;38513;53.234;6.568;2023-08-07T10:33:07;12.95;;;3.63;;
52618;SDS011;38513;53.234;6.568;2023-08-07T10:35:34;12.90;;;3.33;;
52618;SDS011;38513;53.234;6.568;2023-08-07T10:38:09;12.10;;;2.75;;
52618;SDS011;38513;53.234;6.568;2023-08-07T10:43:21;10.02;;;2.90;;
52618;SDS011;38513;53.234;6.568;2023-08-07T10:45:53;9.02;;;2.75;;
52618;SDS011;38513;53.234;6.568;2023-08-07T10:48:20;12.05;;;2.58;;
52618;SDS011;38513;53.234;6.568;2023-08-07T10:50:55;10.63;;;2.60;;
52618;SDS011;38513;53.234;6.568;2023-08-07T10:53:29;11.37;;;2.40;;
52618;SDS011;38513;53.234;6.568;2023-08-07T10:55:55;8.38;;;1.95;;
52618;SDS011;38513;53.234;6.568;2023-08-07T10:58:32;9.35;;;2.20;;
52618;SDS011;38513;53.234;6.568;2023-08-07T11:01:21;7.22;;;1.80;;
52618;SDS011;38513;53.234;6.568;2023-08-07T11:03:50;7.88;;;2.20;;
52618;SDS011;38513;53.234;6.568;2023-08-07T11:06:29;11.80;;;2.45;;
52618;SDS011;38513;53.234;6.568;2023-08-07T11:09:04;10.38;;;2.60;;
52618;SDS011;38513;53.234;6.568;2023-08-07T11:11:40;11.25;;;2.55;;
52618;SDS011;38513;53.234;6.568;2023-08-07T11:14:06;11.63;;;2.22;;
52618;SDS011;38513;53.234;6.568;2023-08-07T11:16:42;12.02;;;2.25;;
52618;SDS011;38513;53.234;6.568;2023-08-07T11:19:08;9.80;;;2.67;;
52618;SDS011;38513;53.234;6.568;2023-08-07T11:21:35;11.43;;;2.87;;
52618;SDS011;38513;53.234;6.568;2023-08-07T11:24:10;9.88;;;3.00;;
52618;SDS011;38513;53.234;6.568;2023-08-07T11:26:36;10.65;;;2.75;;
52618;SDS011;38513;53.234;6.568;2023-08-07T11:29:02;14.13;;;3.00;;
52618;SDS011;38513;53.234;6.568;2023-08-07T11:31:29;11.18;;;2.65;;
52618;SDS011;38513;53.234;6.568;2023-08-07T11:33:56;9.80;;;2.80;;
52618;SDS011;38513;53.234;6.568;2023-08-07T11:36:26;11.73;;;2.83;;
52618;SDS011;38513;53.234;6.568;2023-08-07T11:38:57;11.68;;;2.80;;
52618;SDS011;38513;53.234;6.568;2023-08-07T11:41:23;8.60;;;2.40;;
52618;SDS011;38513;53.234;6.568;2023-08-07T11:43:55;9.02;;;2.50;;
52618;SDS011;38513;53.234;6.568;2023-08-07T11:46:25;8.60;;;2.47;;
52618;SDS011;38513;53.234;6.568;2023-08-07T11:48:54;10.07;;;3.67;;
52618;SDS011;38513;53.234;6.568;2023-08-07T11:51:24;7.28;;;1.85;;
52618;SDS011;38513;53.234;6.568;2023-08-07T11:56:27;4.95;;;1.50;;
52618;SDS011;38513;53.234;6.568;2023-08-07T11:58:54;7.28;;;1.85;;
52618;SDS011;38513;53.234;6.568;2023-08-07T12:01:21;7.93;;;2.00;;
52618;SDS011;38513;53.234;6.568;2023-08-07T12:03:54;8.60;;;2.08;;
52618;SDS011;38513;53.234;6.568;2023-08-07T12:06:23;8.52;;;2.20;;
52618;SDS011;38513;53.234;6.568;2023-08-07T12:09:04;9.68;;;2.33;;
52618;SDS011;38513;53.234;6.568;2023-08-07T12:11:46;8.90;;;2.17;;
52618;SDS011;38513;53.234;6.568;2023-08-07T12:14:15;8.52;;;2.20;;
52618;SDS011;38513;53.234;6.568;2023-08-07T12:16:54;7.10;;;2.35;;
52618;SDS011;38513;53.234;6.568;2023-08-07T12:19:20;8.27;;;2.20;;
52618;SDS011;38513;53.234;6.568;2023-08-07T12:21:49;6.65;;;1.90;;
52618;SDS011;38513;53.234;6.568;2023-08-07T12:24:15;7.05;;;1.80;;
52618;SDS011;38513;53.234;6.568;2023-08-07T12:26:45;7.77;;;1.87;;
52618;SDS011;38513;53.234;6.568;2023-08-07T12:29:12;8.20;;;2.40;;
52618;SDS011;38513;53.234;6.568;2023-08-07T12:31:41;9.90;;;3.65;;
52618;SDS011;38513;53.234;6.568;2023-08-07T12:34:07;9.30;;;2.70;;
52618;SDS011;38513;53.234;6.568;2023-08-07T12:36:35;8.32;;;2.60;;
52618;SDS011;38513;53.234;6.568;2023-08-07T12:39:02;9.60;;;2.83;;
52618;SDS011;38513;53.234;6.568;2023-08-07T12:41:28;12.30;;;2.42;;
52618;SDS011;38513;53.234;6.568;2023-08-07T12:43:54;10.43;;;2.83;;
52618;SDS011;38513;53.234;6.568;2023-08-07T12:46:21;10.30;;;3.20;;
52618;SDS011;38513;53.234;6.568;2023-08-07T12:48:47;10.38;;;2.67;;
52618;SDS011;38513;53.234;6.568;2023-08-07T12:51:13;12.85;;;2.50;;
52618;SDS011;38513;53.234;6.568;2023-08-07T12:53:42;10.35;;;2.50;;
52618;SDS011;38513;53.234;6.568;2023-08-07T12:56:12;9.37;;;2.60;;
52618;SDS011;38513;53.234;6.568;2023-08-07T12:58:41;10.95;;;2.63;;
52618;SDS011;38513;53.234;6.568;2023-08-07T13:01:08;12.07;;;2.90;;
52618;SDS011;38513;53.234;6.568;2023-08-07T13:03:37;10.95;;;3.03;;
52618;SDS011;38513;53.234;6.568;2023-08-07T13:06:03;11.65;;;2.70;;
52618;SDS011;38513;53.234;6.568;2023-08-07T13:08:32;13.03;;;2.70;;
52618;SDS011;38513;53.234;6.568;2023-08-07T13:11:00;8.77;;;2.67;;
52618;SDS011;38513;53.234;6.568;2023-08-07T13:13:26;9.27;;;2.70;;
52618;SDS011;38513;53.234;6.568;2023-08-07T13:15:56;10.50;;;3.00;;
52618;SDS011;38513;53.234;6.568;2023-08-07T13:18:22;10.37;;;2.80;;
52618;SDS011;38513;53.234;6.568;2023-08-07T13:20:51;10.73;;;2.72;;
52618;SDS011;38513;53.234;6.568;2023-08-07T13:23:18;10.75;;;3.20;;
52618;SDS011;38513;53.234;6.568;2023-08-07T13:25:44;12.13;;;3.45;;
52618;SDS011;38513;53.234;6.568;2023-08-07T13:28:13;12.07;;;3.33;;
52618;SDS011;38513;53.234;6.568;2023-08-07T13:30:39;13.25;;;3.25;;
52618;SDS011;38513;53.234;6.568;2023-08-07T13:33:06;11.32;;;2.97;;
52618;SDS011;38513;53.234;6.568;2023-08-07T13:35:32;12.02;;;2.95;;
52618;SDS011;38513;53.234;6.568;2023-08-07T13:37:58;11.13;;;2.80;;
52618;SDS011;38513;53.234;6.568;2023-08-07T13:40:24;9.82;;;2.42;;
52618;SDS011;38513;53.234;6.568;2023-08-07T13:42:53;9.48;;;2.75;;
52618;SDS011;38513;53.234;6.568;2023-08-07T13:45:22;11.23;;;2.63;;
52618;SDS011;38513;53.234;6.568;2023-08-07T13:47:48;10.30;;;2.90;;
52618;SDS011;38513;53.234;6.568;2023-08-07T13:50:14;10.63;;;2.80;;
52618;SDS011;38513;53.234;6.568;2023-08-07T13:52:41;10.48;;;3.20;;
52618;SDS011;38513;53.234;6.568;2023-08-07T13:55:07;12.23;;;3.27;;
52618;SDS011;38513;53.234;6.568;2023-08-07T13:57:34;10.07;;;2.63;;
52618;SDS011;38513;53.234;6.568;2023-08-07T14:00:00;9.90;;;3.10;;
52618;SDS011;38513;53.234;6.568;2023-08-07T14:02:28;11.55;;;3.60;;
52618;SDS011;38513;53.234;6.568;2023-08-07T14:04:55;12.88;;;3.53;;
52618;SDS011;38513;53.234;6.568;2023-08-07T14:07:24;10.77;;;2.92;;
52618;SDS011;38513;53.234;6.568;2023-08-07T14:09:50;11.87;;;3.57;;
52618;SDS011;38513;53.234;6.568;2023-08-07T14:12:16;10.93;;;3.15;;
52618;SDS011;38513;53.234;6.568;2023-08-07T14:14:42;10.98;;;3.10;;
52618;SDS011;38513;53.234;6.568;2023-08-07T14:17:08;11.90;;;3.13;;
52618;SDS011;38513;53.234;6.568;2023-08-07T14:19:35;10.35;;;2.80;;
52618;SDS011;38513;53.234;6.568;2023-08-07T14:22:01;9.35;;;2.60;;
52618;SDS011;38513;53.234;6.568;2023-08-07T14:24:27;10.27;;;3.20;;
52618;SDS011;38513;53.234;6.568;2023-08-07T14:26:53;10.38;;;2.70;;
52618;SDS011;38513;53.234;6.568;2023-08-07T14:29:19;7.82;;;2.45;;
52618;SDS011;38513;53.234;6.568;2023-08-07T14:31:45;10.55;;;2.72;;
52618;SDS011;38513;53.234;6.568;2023-08-07T14:34:15;8.88;;;2.70;;
52618;SDS011;38513;53.234;6.568;2023-08-07T14:36:41;8.90;;;2.75;;
52618;SDS011;38513;53.234;6.568;2023-08-07T14:39:10;9.05;;;2.55;;
52618;SDS011;38513;53.234;6.568;2023-08-07T14:41:36;8.93;;;2.55;;
52618;SDS011;38513;53.234;6.568;2023-08-07T14:44:02;7.67;;;2.30;;
52618;SDS011;38513;53.234;6.568;2023-08-07T14:46:28;10.25;;;2.20;;
52618;SDS011;38513;53.234;6.568;2023-08-07T14:48:55;11.07;;;2.65;;